Loisir ou Compétition : Rejoignez un Club de la Fédération

Résultats

SUBARU Nordic Challenge FFS 4

LA CLUSAZ

FS Dames

Jury de Compétition

Délégué Technique :
PORRET THIERRY (MB)
D.T. Adjoint :
FROSSARD CHRISTIAN (SA)
Dir. Epreuve :
VITTOZ STEPHANE (MB)

Caractéristiques de la Piste

Piste :
 
Distance :
5,0 km
Point Haut :
1425 m
Point Bas :
1362 m
Montée Tot. :
 
Montée Max. :
 
Homologation :
 

Pénalité Appliquée :
5.0000
Coefficient :
 

Catégorie :
JE/SEN
Style :
 
Clt Dos Clt/Cat Code An Nom Prénom Com Club Temps Ecart Points
Classés
1 42 1/SEN FFS2259863 1989 LOCATELLI MANON DA SA MEAUDRAIS 16:22.5 00:00.0 5.00
2 41 2/SEN FFS2292494 1991 AYMONIER CELIA MJ SC LESFOURGS 16:54.8 00:32.3 31.30
3 40 3/SEN FFS2266678 1991 COLIN MARION MV H.M.S.N. 17:05.9 00:43.4 40.34
4 43 4/SEN FFS1341311 1990 BUILLET MARION SA CS SAISIES 17:15.5 00:53.0 48.16
5 37 5/SEN FFS2266443 1991 ARNOULD ALINE MV SC RANSPACH 17:22.4 00:59.9 53.77
6 38 6/SEN FFS2326947 1990 TASSION LAURE SA SC ARECHES 17:25.3 01:02.8 56.13
7 36 1/JUN FFS2289281 1992 MONTIGNY SIGRID AP ES VALLOUISE 17:30.5 01:08.0 60.37
8 31 7/SEN FFS2265148 1989 SIMILLE MANON SA SC BOZEL 17:37.6 01:15.1 66.15
9 29 2/JUN FFS2622862 1993 KROMER MARIE MB PRAZ LYS-SOM 17:44.2 01:21.7 71.52
10 23 1/JEUN FFS2625587 1994 PERRILLAT AMEDE ALISON MB SC GD BORNAN 17:52.4 01:29.9 78.20
11 34 3/JUN FFS2620471 1992 LACROIX ROXANE MJ BOIS D'AMONT 17:56.2 01:33.7 81.30
12 28 4/JUN FFS2614070 1992 ANSELMO CINDELL MB CS CHAMONIX 17:59.4 01:36.9 83.90
13 26 5/JUN FFS2356248 1993 GUIPPONI ALEXIA SA SC BOZEL 18:02.6 01:40.1 86.51
14 20 2/JEUN FFS2604396 1994 MARSEILLE LISE AP GAP-BAYARD 18:14.5 01:52.0 96.20
15 25 6/JUN FFS2626761 1993 GODIN MARIE CAROLINE MJ BOIS D'AMONT 18:18.0 01:55.5 99.05
16 33 7/JUN FFS2613211 1992 HUDRY CLERGEON GAELLE MB SC GD BORNAN 18:26.2 02:03.7 105.72
17 32 8/JUN FFS2618811 1993 DEVAUX JULIA DA CS VILLARD 18:29.0 02:06.5 108.00
18 22 3/JEUN FFS2625590 1994 VULLIET CONSTANCE MB SC GD BORNAN 18:31.0 02:08.5 109.63
19 24 4/JEUN FFS2633735 1995 DAMIANI LEA MB VILLARD/BOEG 18:43.2 02:20.7 119.56
20 16 5/JEUN FFS2620347 1994 VERKINDT ALICE DA CO SEPT LAUX 18:44.4 02:21.9 120.54
21 21 9/JUN FFS2615048 1993 MADARY LISE DA CS VILLARD 18:49.3 02:26.8 124.53
22 14 6/JEUN FFS2621142 1994 RAVEL ELSA AP AS EDELWEISS 18:50.8 02:28.3 125.75
23 19 10/JUN FFS2613215 1992 PESSEY IRIS MB SC GD BORNAN 18:53.2 02:30.7 127.71
24 9 7/JEUN FFS2624800 1995 TARDY NOEMIE SA SC ARECHES 18:53.4 02:30.9 127.87
25 17 8/JEUN FFS2626561 1994 MURA MATHILDE MV SC RANSPACH 18:58.2 02:35.7 131.78
26 11 9/JEUN FFS2626357 1995 GROS EMILIE AP ES VALLOUISE 19:10.8 02:48.3 142.04
27 15 10/JEUN FFS2619875 1994 TRUJON ANDREA MJ PREMANON SC 19:16.7 02:54.2 146.84
27 30 10/JEUN FFS2628103 1994 PETITJEAN MATHILDE MB SCNP ROCHOIS 19:16.7 02:54.2 146.84
29 10 12/JEUN FFS2626362 1995 SERCA CECILE AP ES VALLOUISE 19:18.6 02:56.1 148.39
30 5 13/JEUN FFS2626799 1995 YSEBAERT ANAIS AP AS EDELWEISS 19:26.3 03:03.8 154.66
31 13 14/JEUN FFS2617672 1994 CHOPARD LALLIER CELINE MJ VAL MORTEAU 19:33.1 03:10.6 160.20
32 18 15/JEUN FFS2627129 1994 BELLE DELPHINE DA SNB CHAMROUS 19:40.0 03:17.5 165.81
33 7 11/JUN FFS2620352 1993 ANDRE CAROLYNE MB SC D'AGY 19:45.2 03:22.7 170.05
34 3 16/JEUN FFS2616781 1995 CADET CAMILLE DA CS VILLARD 20:03.7 03:41.2 185.11
35 4 17/JEUN FFS2638033 1995 BLONDEAU MAELISS MJ SC MONT NOIR 20:07.1 03:44.6 187.88
36 35 12/JUN FFS2618741 1993 BENOIT MANON MV SC RANSPACH 20:08.6 03:46.1 189.10
37 6 18/JEUN FFS2605537 1994 BUISSON MANON DA SA MEAUDRAIS 20:11.1 03:48.6 191.14
38 8 19/JEUN FFS2620802 1994 THIBAL COLINE SA CS LA FECLAZ 20:12.6 03:50.1 192.36
39 1 20/JEUN FFS2643953 1995 POURROY MARION SA CS LA FECLAZ 20:25.4 04:02.9 202.78
40 12 21/JEUN FFS2601098 1995 MIOCEC PAULINE SA SC MENUIRES 20:27.2 04:04.7 204.25
41 2 13/JUN FFS2353814 1992 PETIT ELODIE MB SC D'AGY 21:15.9 04:53.4 243.90
Non partants
27 FFS2600933 1990 DEWAELE MARINE MB CS CHAMONIX
39 FFS2353782 1990 MOUILLESEAUX LUCILE MB PRAZ LYS-SOM